createdAt,value
2022-12-01T00:00:55.397Z,37.53
2022-12-01T00:02:58.389Z,36.30
2022-12-01T00:04:59.866Z,28.55
2022-12-01T00:07:01.291Z,29.05
2022-12-01T00:09:21.588Z,35.50
2022-12-01T00:11:23.017Z,35.60
2022-12-01T00:13:24.469Z,29.33
2022-12-01T00:15:27.770Z,27.88
2022-12-01T00:17:30.272Z,32.55
2022-12-01T00:19:31.864Z,28.17
2022-12-01T00:21:33.278Z,29.83
2022-12-01T00:23:34.767Z,21.92
2022-12-01T00:25:36.363Z,25.75
2022-12-01T00:27:37.886Z,24.80
2022-12-01T00:29:39.985Z,20.45
2022-12-01T00:31:41.633Z,25.70
2022-12-01T00:33:43.214Z,22.48
2022-12-01T00:35:44.650Z,28.92
2022-12-01T00:37:46.166Z,27.35
2022-12-01T00:39:47.922Z,23.80
2022-12-01T00:41:49.671Z,20.42
2022-12-01T00:43:51.822Z,21.80
2022-12-01T00:45:54.590Z,22.65
2022-12-01T00:47:56.107Z,22.77
2022-12-01T00:49:57.574Z,24.83
2022-12-01T00:51:59.298Z,20.58
2022-12-01T00:54:00.758Z,19.30
2022-12-01T00:56:02.232Z,21.85
2022-12-01T00:58:04.543Z,33.22
2022-12-01T01:00:07.058Z,24.48
2022-12-01T01:02:08.813Z,20.85
2022-12-01T01:04:10.335Z,25.13
2022-12-01T01:06:12.858Z,22.45
2022-12-01T01:08:17.600Z,20.45
2022-12-01T01:10:19.096Z,19.20
2022-12-01T01:12:20.586Z,19.08
2022-12-01T01:14:22.493Z,20.27
2022-12-01T01:16:24.092Z,20.83
2022-12-01T01:18:26.112Z,23.83
2022-12-01T01:20:28.469Z,26.42
2022-12-01T01:22:30.030Z,20.17
2022-12-01T01:24:31.502Z,19.88
2022-12-01T01:26:33.601Z,19.00
2022-12-01T01:28:35.397Z,20.05
2022-12-01T01:30:39.903Z,20.70
2022-12-01T01:32:41.389Z,21.10
2022-12-01T01:34:42.850Z,19.88
2022-12-01T01:36:44.340Z,19.90
2022-12-01T01:38:46.352Z,20.90
2022-12-01T01:40:48.018Z,20.02
2022-12-01T01:42:49.661Z,20.17
2022-12-01T01:44:54.497Z,21.00
2022-12-01T01:46:56.035Z,22.15
2022-12-01T01:49:04.791Z,24.45
2022-12-01T01:51:07.384Z,21.00
2022-12-01T01:53:12.336Z,20.40
2022-12-01T01:55:14.556Z,21.23
2022-12-01T01:57:24.219Z,24.20
2022-12-01T02:01:31.301Z,20.50
2022-12-01T02:03:33.720Z,22.20
2022-12-01T02:05:36.973Z,23.58
2022-12-01T02:07:40.173Z,25.83
2022-12-01T02:09:41.754Z,23.30
2022-12-01T02:11:49.172Z,23.92
2022-12-01T02:14:08.404Z,20.27
2022-12-01T02:16:26.018Z,29.10
2022-12-01T02:18:42.560Z,26.27
2022-12-01T02:21:11.894Z,20.27
2022-12-01T02:23:53.924Z,20.33
2022-12-01T02:26:23.123Z,20.23
2022-12-01T02:28:53.366Z,22.00
2022-12-01T02:31:03.941Z,19.27
2022-12-01T02:33:19.459Z,21.60
2022-12-01T02:35:59.265Z,21.08
2022-12-01T02:38:37.966Z,19.85
2022-12-01T02:40:54.310Z,22.40
2022-12-01T02:43:18.061Z,23.55
2022-12-01T02:45:33.220Z,23.50
2022-12-01T02:47:37.430Z,23.35
2022-12-01T02:49:43.054Z,22.92
2022-12-01T02:51:45.750Z,21.58
2022-12-01T02:53:47.704Z,22.10
2022-12-01T02:55:54.985Z,22.33
2022-12-01T02:57:56.456Z,24.70
2022-12-01T02:59:59.746Z,25.52
2022-12-01T03:02:20.893Z,46.95
2022-12-01T03:04:44.477Z,40.67
2022-12-01T03:06:59.342Z,26.40
2022-12-01T03:09:12.899Z,22.15
2022-12-01T03:11:29.335Z,23.48
2022-12-01T03:13:42.631Z,23.00
2022-12-01T03:15:47.137Z,23.88
2022-12-01T03:18:20.135Z,21.85
2022-12-01T03:20:32.736Z,23.58
2022-12-01T03:22:42.543Z,22.88
2022-12-01T03:24:47.206Z,24.67
2022-12-01T03:26:56.875Z,23.90
2022-12-01T03:31:08.893Z,23.33
2022-12-01T03:33:19.107Z,21.23
2022-12-01T03:35:36.438Z,25.10
2022-12-01T03:37:43.420Z,24.58
2022-12-01T03:39:48.033Z,25.10
2022-12-01T03:42:09.669Z,21.65
2022-12-01T03:44:22.560Z,24.60
2022-12-01T03:46:41.406Z,24.45
2022-12-01T03:48:43.428Z,27.35
2022-12-01T03:51:02.476Z,26.40
2022-12-01T03:53:11.299Z,26.48
2022-12-01T03:55:33.675Z,25.52
2022-12-01T03:57:42.396Z,26.13
2022-12-01T03:59:44.612Z,27.37
2022-12-01T04:01:46.443Z,25.10
2022-12-01T04:03:48.515Z,26.40
2022-12-01T04:05:50.010Z,31.38
2022-12-01T04:07:51.585Z,25.70
2022-12-01T04:09:53.074Z,26.30
2022-12-01T04:12:13.004Z,31.85
2022-12-01T04:14:14.541Z,27.65
2022-12-01T04:16:16.029Z,23.90
2022-12-01T04:18:18.499Z,24.90
2022-12-01T04:20:20.295Z,25.42
2022-12-01T04:22:22.542Z,25.52
2022-12-01T04:24:23.983Z,23.23
2022-12-01T04:26:25.651Z,25.08
2022-12-01T04:28:27.683Z,23.65
2022-12-01T04:30:29.171Z,20.73
2022-12-01T04:32:30.644Z,21.75
2022-12-01T04:34:32.150Z,38.92
2022-12-01T04:36:34.791Z,25.70
2022-12-01T04:38:37.106Z,22.35
2022-12-01T04:40:38.720Z,23.73
2022-12-01T04:42:40.224Z,22.77
2022-12-01T04:44:42.867Z,23.20
2022-12-01T04:46:44.410Z,25.35
2022-12-01T04:48:46.078Z,24.35
2022-12-01T04:50:49.494Z,25.08
2022-12-01T04:52:50.982Z,22.73
2022-12-01T04:54:52.455Z,26.48
2022-12-01T04:56:54.072Z,24.35
2022-12-01T04:58:55.593Z,28.00
2022-12-01T05:01:05.827Z,25.98
2022-12-01T05:03:10.830Z,36.30
2022-12-01T05:05:16.496Z,34.72
2022-12-01T05:07:18.304Z,28.42
2022-12-01T05:09:21.339Z,30.48
2022-12-01T05:11:24.613Z,30.75
2022-12-01T05:13:26.228Z,33.13
2022-12-01T05:15:27.699Z,34.08
2022-12-01T05:17:35.515Z,36.88
2022-12-01T05:19:56.940Z,31.75
2022-12-01T05:21:58.417Z,33.10
2022-12-01T05:23:59.841Z,32.17
2022-12-01T05:26:02.741Z,34.97
2022-12-01T05:28:05.212Z,60.13
2022-12-01T05:30:07.518Z,67.13
2022-12-01T05:32:08.973Z,47.67
2022-12-01T05:34:10.531Z,40.25
2022-12-01T05:36:12.030Z,37.55
2022-12-01T05:38:13.632Z,34.28
2022-12-01T05:40:15.182Z,31.40
2022-12-01T05:42:16.643Z,29.05
2022-12-01T05:44:18.195Z,25.25
2022-12-01T05:46:19.702Z,24.85
2022-12-01T05:48:21.231Z,24.90
2022-12-01T05:50:24.073Z,23.67
2022-12-01T05:52:25.489Z,23.50
2022-12-01T05:54:30.655Z,25.05
2022-12-01T05:56:32.178Z,18.80
2022-12-01T05:58:34.326Z,22.30
2022-12-01T06:00:39.616Z,19.40
2022-12-01T06:02:45.648Z,19.48
2022-12-01T06:04:47.155Z,21.42
2022-12-01T06:06:48.575Z,20.38
2022-12-01T06:08:50.054Z,22.70
2022-12-01T06:10:51.722Z,23.63
2022-12-01T06:12:53.310Z,24.70
2022-12-01T06:14:54.757Z,20.50
2022-12-01T06:16:56.223Z,23.00
2022-12-01T06:18:57.711Z,20.13
2022-12-01T06:20:59.290Z,20.83
2022-12-01T06:23:01.017Z,18.50
2022-12-01T06:25:02.510Z,17.63
2022-12-01T06:27:04.054Z,18.52
2022-12-01T06:29:05.637Z,19.45
2022-12-01T06:31:07.219Z,18.38
2022-12-01T06:33:08.880Z,20.27
2022-12-01T06:35:10.365Z,18.75
2022-12-01T06:37:12.084Z,20.92
2022-12-01T06:39:15.968Z,21.45
2022-12-01T06:41:17.434Z,20.15
2022-12-01T06:43:18.880Z,21.45
2022-12-01T06:45:20.477Z,23.50
2022-12-01T06:47:22.300Z,19.95
2022-12-01T06:49:23.801Z,20.98
2022-12-01T06:51:25.370Z,20.35
2022-12-01T06:53:28.483Z,19.20
2022-12-01T06:55:30.054Z,19.98
2022-12-01T06:57:32.314Z,21.83
2022-12-01T06:59:34.145Z,19.80
2022-12-01T07:01:36.444Z,21.25
2022-12-01T07:03:38.989Z,20.20
2022-12-01T07:05:40.440Z,21.52
2022-12-01T07:07:41.968Z,19.73
2022-12-01T07:09:43.424Z,20.98
2022-12-01T07:11:44.936Z,21.63
2022-12-01T07:13:46.472Z,19.60
2022-12-01T07:15:48.214Z,23.25
2022-12-01T07:17:50.290Z,21.30
2022-12-01T07:19:51.825Z,22.45
2022-12-01T07:21:53.408Z,21.23
2022-12-01T07:23:54.877Z,24.92
2022-12-01T07:26:04.862Z,22.35
2022-12-01T07:28:06.276Z,26.45
2022-12-01T07:30:08.414Z,33.90
2022-12-01T07:32:09.833Z,31.60
2022-12-01T07:34:13.317Z,24.20
2022-12-01T07:36:14.823Z,21.98
2022-12-01T07:38:21.821Z,29.02
2022-12-01T07:40:23.857Z,34.72
2022-12-01T07:42:25.352Z,51.35
2022-12-01T07:44:26.849Z,43.90
2022-12-01T07:46:28.636Z,36.70
2022-12-01T07:48:31.271Z,39.15
2022-12-01T07:50:32.988Z,49.25
2022-12-01T07:52:34.480Z,45.00
2022-12-01T07:54:36.018Z,36.22
2022-12-01T07:56:37.596Z,72.43
2022-12-01T07:58:39.607Z,42.67
2022-12-01T08:00:41.075Z,32.80
2022-12-01T08:02:42.596Z,36.00
2022-12-01T08:04:44.276Z,38.65
2022-12-01T08:06:45.717Z,36.90
2022-12-01T08:08:47.901Z,33.17
2022-12-01T08:10:49.346Z,37.90
2022-12-01T08:12:50.818Z,38.50
2022-12-01T08:14:52.306Z,36.10
2022-12-01T08:16:53.831Z,39.47
2022-12-01T08:18:55.372Z,32.40
2022-12-01T08:21:00.292Z,26.58
2022-12-01T08:23:01.980Z,26.02
2022-12-01T08:25:04.010Z,24.35
2022-12-01T08:27:05.483Z,22.10
2022-12-01T08:29:07.138Z,23.15
2022-12-01T08:31:09.760Z,27.55
2022-12-01T08:33:11.604Z,28.88
2022-12-01T08:35:20.448Z,51.28
2022-12-01T08:37:21.894Z,57.53
2022-12-01T08:39:23.432Z,42.50
2022-12-01T08:41:25.179Z,31.30
2022-12-01T08:43:56.063Z,32.70
2022-12-01T08:45:48.791Z,41.08
2022-12-01T08:47:50.237Z,42.28
2022-12-01T08:50:00.690Z,31.05
2022-12-01T08:52:02.209Z,32.22
2022-12-01T08:54:03.997Z,23.38
2022-12-01T08:56:33.346Z,26.35
2022-12-01T08:58:34.952Z,24.45
2022-12-01T09:00:36.461Z,26.92
2022-12-01T09:02:38.186Z,31.55
2022-12-01T09:04:39.721Z,26.35
2022-12-01T09:06:43.217Z,35.13
2022-12-01T09:08:44.741Z,30.85
2022-12-01T09:10:52.854Z,38.38
2022-12-01T09:12:54.380Z,31.38
2022-12-01T09:14:55.875Z,28.10
2022-12-01T09:16:59.885Z,27.10
2022-12-01T09:19:01.394Z,40.35
2022-12-01T09:21:26.680Z,29.65
2022-12-01T09:23:28.317Z,32.70
2022-12-01T09:25:30.934Z,31.25
2022-12-01T09:27:32.505Z,24.27
2022-12-01T09:29:34.016Z,33.92
2022-12-01T09:31:37.225Z,27.38
2022-12-01T09:33:39.486Z,27.48
2022-12-01T09:35:41.183Z,32.25
2022-12-01T09:37:42.653Z,45.38
2022-12-01T09:39:44.074Z,42.00
2022-12-01T09:41:59.592Z,24.25
2022-12-01T09:44:14.095Z,34.15
2022-12-01T09:46:22.694Z,23.05
2022-12-01T09:48:52.039Z,40.40
2022-12-01T09:50:53.959Z,27.83
2022-12-01T09:53:12.005Z,27.63
2022-12-01T09:55:20.959Z,29.35
2022-12-01T09:57:37.393Z,24.77
2022-12-01T09:59:43.840Z,27.15
2022-12-01T10:01:49.857Z,22.75
2022-12-01T10:03:57.534Z,27.35
2022-12-01T10:08:30.457Z,23.10
2022-12-01T10:10:39.619Z,35.45
2022-12-01T10:12:43.211Z,28.77
2022-12-01T10:14:47.158Z,24.75
2022-12-01T10:16:55.593Z,25.83
2022-12-01T10:19:14.090Z,19.17
2022-12-01T10:21:52.970Z,20.95
2022-12-01T10:24:34.151Z,16.13
2022-12-01T10:27:22.391Z,14.85
2022-12-01T10:29:48.340Z,15.38
2022-12-01T10:31:59.489Z,18.42
2022-12-01T10:34:03.003Z,17.85
2022-12-01T10:36:04.646Z,15.13
2022-12-01T10:38:13.269Z,19.08
2022-12-01T10:40:19.248Z,25.77
2022-12-01T10:42:36.354Z,19.20
2022-12-01T10:44:38.190Z,12.73
2022-12-01T10:46:49.214Z,15.40
2022-12-01T10:48:56.525Z,12.20
2022-12-01T10:51:15.498Z,15.82
2022-12-01T10:53:22.965Z,29.70
2022-12-01T10:55:28.809Z,23.17
2022-12-01T10:57:31.387Z,16.75
2022-12-01T10:59:35.785Z,15.85
2022-12-01T11:01:37.605Z,16.15
2022-12-01T11:03:40.492Z,16.58
2022-12-01T11:05:42.359Z,13.90
2022-12-01T11:07:47.432Z,12.60
2022-12-01T11:10:16.962Z,29.17
2022-12-01T11:12:20.519Z,13.10
2022-12-01T11:14:26.992Z,15.50
2022-12-01T11:16:41.673Z,12.45
2022-12-01T11:18:43.205Z,12.80
2022-12-01T11:20:44.895Z,8.93
2022-12-01T11:22:46.551Z,10.55
2022-12-01T11:24:53.787Z,12.02
2022-12-01T11:26:57.971Z,12.02
2022-12-01T11:29:07.267Z,14.52
2022-12-01T11:31:10.731Z,15.95
2022-12-01T11:33:17.853Z,11.13
2022-12-01T11:35:22.330Z,14.98
2022-12-01T11:37:29.035Z,17.25
2022-12-01T11:39:35.887Z,17.75
2022-12-01T11:41:40.562Z,14.48
2022-12-01T11:43:46.575Z,18.38
2022-12-01T11:45:53.430Z,14.60
2022-12-01T11:48:18.689Z,17.15
2022-12-01T11:50:26.476Z,9.00
2022-12-01T11:52:33.631Z,12.73
2022-12-01T11:54:38.331Z,11.50
2022-12-01T11:56:39.966Z,14.70
2022-12-01T11:58:42.988Z,14.50
2022-12-01T12:00:56.691Z,19.77
2022-12-01T12:03:21.154Z,22.52
2022-12-01T12:05:34.290Z,17.33
2022-12-01T12:08:13.141Z,16.90
2022-12-01T12:10:37.745Z,15.73
2022-12-01T12:13:13.518Z,23.55
2022-12-01T12:15:53.148Z,20.23
2022-12-01T12:20:37.162Z,24.48
2022-12-01T12:23:16.254Z,22.58
2022-12-01T12:25:26.262Z,15.57
2022-12-01T12:27:37.447Z,26.95
2022-12-01T12:30:09.944Z,16.55
2022-12-01T12:32:45.553Z,26.73
2022-12-01T12:35:23.762Z,13.45
2022-12-01T12:37:50.652Z,17.20
2022-12-01T12:40:13.874Z,20.00
2022-12-01T12:42:35.209Z,37.05
2022-12-01T12:44:48.669Z,26.65
2022-12-01T12:47:01.170Z,31.05
2022-12-01T12:49:27.133Z,23.98
2022-12-01T12:52:09.139Z,14.27
2022-12-01T12:54:37.048Z,14.13
2022-12-01T12:56:43.532Z,20.95
2022-12-01T12:59:09.364Z,16.20
2022-12-01T13:01:21.430Z,15.02
2022-12-01T13:03:48.980Z,14.95
2022-12-01T13:05:56.279Z,11.30
2022-12-01T13:08:30.669Z,11.60
2022-12-01T13:10:46.843Z,15.63
2022-12-01T13:13:00.260Z,25.40
2022-12-01T13:15:16.834Z,11.95
2022-12-01T13:17:26.579Z,23.67
2022-12-01T13:19:32.446Z,11.15
2022-12-01T13:21:41.498Z,8.32
2022-12-01T13:23:44.751Z,8.48
2022-12-01T13:25:50.425Z,7.10
2022-12-01T13:27:52.704Z,7.97
2022-12-01T13:29:56.231Z,14.95
2022-12-01T13:31:57.753Z,11.45
2022-12-01T13:34:02.019Z,12.65
2022-12-01T13:38:34.066Z,14.65
2022-12-01T13:40:35.907Z,16.00
2022-12-01T13:42:38.127Z,19.60
2022-12-01T13:44:42.852Z,27.08
2022-12-01T13:46:44.368Z,18.60
2022-12-01T13:48:45.838Z,23.08
2022-12-01T13:50:53.214Z,16.95
2022-12-01T13:53:09.900Z,37.20
2022-12-01T13:55:11.329Z,14.00
2022-12-01T13:57:14.537Z,13.85
2022-12-01T13:59:53.710Z,11.70
2022-12-01T14:02:14.220Z,13.68
2022-12-01T14:04:15.696Z,13.15
2022-12-01T14:06:49.537Z,18.35
2022-12-01T14:08:56.690Z,21.50
2022-12-01T14:11:01.636Z,21.60
2022-12-01T14:13:05.846Z,13.68
2022-12-01T14:15:30.833Z,30.20
2022-12-01T14:17:38.118Z,14.27
2022-12-01T14:19:46.665Z,15.60
2022-12-01T14:21:49.723Z,14.27
2022-12-01T14:24:06.532Z,12.38
2022-12-01T14:26:18.616Z,15.25
2022-12-01T14:28:55.247Z,17.65
2022-12-01T14:30:56.720Z,23.75
2022-12-01T14:33:39.742Z,19.00
2022-12-01T14:35:41.483Z,21.15
2022-12-01T14:37:46.210Z,23.00
2022-12-01T14:40:12.777Z,26.05
2022-12-01T14:42:58.391Z,25.38
2022-12-01T14:45:03.327Z,22.70
2022-12-01T14:47:10.839Z,18.70
2022-12-01T14:49:40.619Z,29.33
2022-12-01T14:51:46.120Z,24.70
2022-12-01T14:53:50.667Z,29.08
2022-12-01T14:55:59.274Z,25.58
2022-12-01T14:58:05.934Z,30.52
2022-12-01T15:00:22.825Z,29.33
2022-12-01T15:02:24.735Z,19.48
2022-12-01T15:04:26.417Z,21.77
2022-12-01T15:06:30.123Z,15.05
2022-12-01T15:08:42.067Z,35.42
2022-12-01T15:10:53.084Z,24.73
2022-12-01T15:12:55.142Z,24.05
2022-12-01T15:14:56.632Z,28.52
2022-12-01T15:16:58.932Z,28.30
2022-12-01T15:19:00.466Z,19.35
2022-12-01T15:21:23.258Z,19.67
2022-12-01T15:23:24.734Z,16.17
2022-12-01T15:25:32.305Z,18.10
2022-12-01T15:27:33.794Z,18.90
2022-12-01T15:29:45.517Z,18.05
2022-12-01T15:31:50.301Z,24.10
2022-12-01T15:33:54.166Z,29.58
2022-12-01T15:35:56.527Z,24.67
2022-12-01T15:37:58.405Z,29.17
2022-12-01T15:40:54.172Z,44.20
2022-12-01T15:42:29.943Z,39.35
2022-12-01T15:44:37.725Z,43.40
2022-12-01T15:46:39.211Z,46.72
2022-12-01T15:48:41.573Z,28.80
2022-12-01T15:50:47.123Z,35.67
2022-12-01T15:52:48.615Z,33.10
2022-12-01T15:54:50.753Z,20.63
2022-12-01T15:56:55.242Z,22.55
2022-12-01T15:59:11.962Z,20.75
2022-12-01T16:01:19.496Z,15.82
2022-12-01T16:03:21.149Z,12.77
2022-12-01T16:05:26.685Z,24.70
2022-12-01T16:08:04.580Z,19.80
2022-12-01T16:09:57.473Z,17.65
2022-12-01T16:12:21.131Z,30.42
2022-12-01T16:14:24.823Z,22.80
2022-12-01T16:16:31.410Z,27.77
2022-12-01T16:18:34.085Z,38.35
2022-12-01T16:20:42.290Z,55.70
2022-12-01T16:22:46.225Z,42.42
2022-12-01T16:24:51.107Z,38.38
2022-12-01T16:27:01.444Z,31.63
2022-12-01T16:29:02.964Z,23.60
2022-12-01T16:31:06.106Z,28.05
2022-12-01T16:33:20.472Z,36.97
2022-12-01T16:35:30.621Z,37.75
2022-12-01T16:37:32.294Z,42.03
2022-12-01T16:39:33.973Z,25.65
2022-12-01T16:41:39.115Z,44.10
2022-12-01T16:43:46.821Z,33.70
2022-12-01T16:46:03.814Z,24.75
2022-12-01T16:48:09.256Z,26.05
2022-12-01T16:50:19.486Z,27.88
2022-12-01T16:54:42.506Z,25.10
2022-12-01T16:56:43.941Z,27.25
2022-12-01T16:58:45.593Z,37.40
2022-12-01T17:00:52.538Z,37.97
2022-12-01T17:02:54.116Z,38.25
2022-12-01T17:04:55.618Z,48.05
2022-12-01T17:06:57.112Z,37.28
2022-12-01T17:08:58.612Z,26.98
2022-12-01T17:11:00.242Z,29.98
2022-12-01T17:13:01.782Z,26.38
2022-12-01T17:15:04.320Z,29.27
2022-12-01T17:17:05.759Z,29.88
2022-12-01T17:19:07.235Z,33.90
2022-12-01T17:21:10.517Z,26.70
2022-12-01T17:23:12.046Z,26.23
2022-12-01T17:25:13.554Z,39.72
2022-12-01T17:27:15.103Z,42.63
2022-12-01T17:29:16.569Z,27.65
2022-12-01T17:31:18.123Z,30.73
2022-12-01T17:33:19.866Z,35.40
2022-12-01T17:35:21.391Z,26.42
2022-12-01T17:37:22.880Z,26.23
2022-12-01T17:39:24.348Z,32.00
2022-12-01T17:41:32.217Z,26.52
2022-12-01T17:43:35.437Z,28.73
2022-12-01T17:45:42.114Z,38.42
2022-12-01T17:47:43.707Z,29.42
2022-12-01T17:49:45.210Z,29.38
2022-12-01T17:51:46.803Z,25.50
2022-12-01T17:53:48.522Z,30.13
2022-12-01T17:55:50.081Z,41.03
2022-12-01T17:57:51.588Z,24.20
2022-12-01T17:59:53.079Z,37.50
2022-12-01T18:01:54.600Z,38.88
2022-12-01T18:03:57.311Z,38.97
2022-12-01T18:06:01.019Z,44.13
2022-12-01T18:08:02.733Z,22.17
2022-12-01T18:10:04.632Z,26.00
2022-12-01T18:12:06.379Z,26.70
2022-12-01T18:14:07.846Z,30.77
2022-12-01T18:16:25.651Z,32.80
2022-12-01T18:18:27.648Z,28.98
2022-12-01T18:20:29.137Z,23.88
2022-12-01T18:22:30.628Z,15.88
2022-12-01T18:24:32.325Z,19.13
2022-12-01T18:26:34.682Z,23.67
2022-12-01T18:28:36.425Z,23.20
2022-12-01T18:30:38.930Z,24.38
2022-12-01T18:32:40.458Z,28.95
2022-12-01T18:34:42.646Z,25.13
2022-12-01T18:36:44.208Z,31.33
2022-12-01T18:38:47.253Z,30.10
2022-12-01T18:40:48.690Z,27.92
2022-12-01T18:42:50.746Z,31.58
2022-12-01T18:44:52.669Z,28.98
2022-12-01T18:46:54.460Z,22.85
2022-12-01T18:49:00.857Z,40.47
2022-12-01T18:51:04.593Z,34.92
2022-12-01T18:53:06.038Z,35.08
2022-12-01T18:55:07.807Z,20.27
2022-12-01T18:57:09.350Z,19.85
2022-12-01T18:59:12.507Z,24.70
2022-12-01T19:01:28.314Z,20.73
2022-12-01T19:03:30.595Z,19.10
2022-12-01T19:05:32.046Z,21.58
2022-12-01T19:07:33.577Z,20.95
2022-12-01T19:09:35.047Z,26.73
2022-12-01T19:11:38.041Z,17.98
2022-12-01T19:13:39.638Z,21.00
2022-12-01T19:15:41.099Z,17.33
2022-12-01T19:17:42.562Z,10.27
2022-12-01T19:19:44.009Z,12.23
2022-12-01T19:21:45.771Z,14.13
2022-12-01T19:23:48.218Z,42.08
2022-12-01T19:25:49.669Z,25.95
2022-12-01T19:27:53.143Z,17.77
2022-12-01T19:29:54.623Z,29.95
2022-12-01T19:31:56.252Z,23.17
2022-12-01T19:33:57.896Z,22.88
2022-12-01T19:36:11.748Z,16.63
2022-12-01T19:38:13.377Z,13.77
2022-12-01T19:40:15.011Z,12.30
2022-12-01T19:42:16.579Z,14.77
2022-12-01T19:44:18.103Z,18.48
2022-12-01T19:46:22.392Z,15.18
2022-12-01T19:48:23.922Z,14.80
2022-12-01T19:50:25.477Z,21.33
2022-12-01T19:52:28.497Z,27.23
2022-12-01T19:54:32.895Z,17.42
2022-12-01T19:56:34.468Z,15.45
2022-12-01T19:58:36.009Z,19.52
2022-12-01T20:00:37.526Z,16.45
2022-12-01T20:02:39.187Z,20.10
2022-12-01T20:04:40.762Z,20.95
2022-12-01T20:06:42.234Z,26.05
2022-12-01T20:08:44.205Z,18.70
2022-12-01T20:10:47.887Z,18.80
2022-12-01T20:12:50.327Z,20.40
2022-12-01T20:14:52.123Z,28.73
2022-12-01T20:16:57.158Z,22.52
2022-12-01T20:19:03.345Z,31.25
2022-12-01T20:21:19.301Z,30.23
2022-12-01T20:23:20.760Z,37.67
2022-12-01T20:25:22.598Z,31.73
2022-12-01T20:27:24.117Z,29.80
2022-12-01T20:29:28.294Z,23.52
2022-12-01T20:31:31.039Z,22.98
2022-12-01T20:33:32.498Z,22.38
2022-12-01T20:35:33.973Z,21.08
2022-12-01T20:37:35.522Z,19.05
2022-12-01T20:39:38.208Z,16.45
2022-12-01T20:41:40.879Z,22.02
2022-12-01T20:43:42.415Z,23.02
2022-12-01T20:45:43.948Z,21.92
2022-12-01T20:47:45.452Z,21.30
2022-12-01T20:49:47.096Z,24.40
2022-12-01T20:51:48.599Z,30.52
2022-12-01T20:54:12.295Z,28.95
2022-12-01T20:56:12.871Z,84.90
2022-12-01T20:58:14.410Z,31.58
2022-12-01T21:00:16.345Z,19.40
2022-12-01T21:02:17.841Z,23.30
2022-12-01T21:04:19.462Z,19.73
2022-12-01T21:06:21.537Z,20.45
2022-12-01T21:08:23.010Z,18.23
2022-12-01T21:10:24.606Z,26.08
2022-12-01T21:13:01.684Z,25.92
2022-12-01T21:15:22.670Z,20.95
2022-12-01T21:17:39.834Z,20.25
2022-12-01T21:19:52.461Z,15.20
2022-12-01T21:21:53.978Z,17.30
2022-12-01T21:24:17.150Z,18.73
2022-12-01T21:26:19.156Z,13.07
2022-12-01T21:28:24.079Z,18.27
2022-12-01T21:30:26.480Z,14.02
2022-12-01T21:32:34.230Z,14.55
2022-12-01T21:34:35.976Z,16.08
2022-12-01T21:36:37.467Z,19.63
2022-12-01T21:38:38.922Z,19.20
2022-12-01T21:40:42.912Z,17.45
2022-12-01T21:42:44.721Z,14.15
2022-12-01T21:44:46.649Z,13.05
2022-12-01T21:46:55.916Z,13.98
2022-12-01T21:48:57.430Z,13.95
2022-12-01T21:51:11.572Z,12.98
2022-12-01T21:53:14.885Z,11.05
2022-12-01T21:55:16.308Z,13.48
2022-12-01T21:57:43.058Z,16.73
2022-12-01T21:59:44.701Z,17.38
2022-12-01T22:01:47.096Z,18.88
2022-12-01T22:03:48.694Z,18.15
2022-12-01T22:06:21.136Z,15.65
2022-12-01T22:08:13.474Z,15.45
2022-12-01T22:10:56.612Z,18.08
2022-12-01T22:12:58.213Z,15.98
2022-12-01T22:15:01.638Z,16.35
2022-12-01T22:17:06.116Z,12.52
2022-12-01T22:19:16.622Z,12.68
2022-12-01T22:21:30.400Z,12.30
2022-12-01T22:23:36.017Z,12.10
2022-12-01T22:25:37.522Z,12.98
2022-12-01T22:27:40.235Z,12.55
2022-12-01T22:29:46.869Z,12.35
2022-12-01T22:31:48.358Z,12.23
2022-12-01T22:34:01.539Z,14.95
2022-12-01T22:36:19.886Z,13.65
2022-12-01T22:38:37.894Z,14.13
2022-12-01T22:40:53.800Z,18.77
2022-12-01T22:42:55.477Z,15.60
2022-12-01T22:45:00.665Z,14.95
2022-12-01T22:47:02.947Z,14.57
2022-12-01T22:49:10.427Z,15.77
2022-12-01T22:51:45.121Z,14.52
2022-12-01T22:53:46.741Z,15.45
2022-12-01T22:55:56.507Z,18.58
2022-12-01T22:57:58.019Z,16.08
2022-12-01T23:00:15.023Z,15.32
2022-12-01T23:02:21.294Z,15.40
2022-12-01T23:04:27.471Z,17.02
2022-12-01T23:06:48.145Z,12.98
2022-12-01T23:08:49.578Z,13.05
2022-12-01T23:10:52.116Z,13.80
2022-12-01T23:12:55.178Z,14.25
2022-12-01T23:15:28.023Z,12.82
2022-12-01T23:17:31.162Z,23.25
2022-12-01T23:19:34.478Z,12.20
2022-12-01T23:21:36.610Z,23.73
2022-12-01T23:23:38.093Z,15.93
2022-12-01T23:25:41.223Z,12.93
2022-12-01T23:27:44.273Z,15.18
2022-12-01T23:29:45.808Z,15.18
2022-12-01T23:31:49.600Z,14.95
2022-12-01T23:33:51.220Z,16.35
2022-12-01T23:36:11.272Z,16.25
2022-12-01T23:38:20.022Z,14.75
2022-12-01T23:40:25.831Z,14.73
2022-12-01T23:42:27.322Z,21.45
2022-12-01T23:44:35.968Z,15.63
2022-12-01T23:46:37.827Z,15.37
2022-12-01T23:48:43.456Z,16.08
2022-12-01T23:50:46.062Z,15.43
2022-12-01T23:52:48.419Z,15.00
2022-12-01T23:54:50.120Z,31.10
2022-12-01T23:56:55.292Z,16.65
2022-12-01T23:59:00.804Z,20.17
